Union, WV

6:52 AM EDT on September 19, 2014 (GMT -0400)
kc8ysl kc8zec Organ Cave | Change Station
CLOSE
Current Station
Personal Weather Station
Location: Organ Cave, WV
Elevation: 2310 ft
Nearby Weather Stations

Elev 2310 ft 37.71 °N, 80.42 °W | Updated 5 seconds ago

Overcast
Overcast
54.1 °F
Feels Like 54.1 °F
N
0.0
Wind Variable Wind from West
Gusts 0.0 mph

Today
High -- | Low -- °F
--% Chance of Precip.
Yesterday
High -- | Low -- °F
Precip. -- in
7:07 AM 7:23 PM
Waning Crescent, 20% visible
Pressure 30.19 in
Visibility 10.0 miles
Clouds Scattered Clouds 1900 ft
Mostly Cloudy 2700 ft
Overcast 3200 ft
Dew Point 52 °F
Humidity 94%
Rainfall 0.00 in
Snow Depth Not available.
UV 0 out of 12
Pollen 5.10 out of 12
Air Quality Not available.
Flu Activity Not available.
METAR KLWB 191035Z AUTO 02005KT 10SM SCT019 BKN027 OVC032 14/11 A3019 RMK AO2 T01400112

More Conditions Fewer Conditions

Pressure 30.19 in
Visibility 10.0 miles
Clouds Scattered Clouds 1900 ft
Mostly Cloudy 2700 ft
Overcast 3200 ft
Dew Point 52 °F
Humidity 94%
Rainfall 0.00 in
Snow Depth Not available.
UV 0 out of 12
Pollen 5.10 out of 12
Air Quality Not available.
Flu Activity Not available.
METAR KLWB 191035Z AUTO 02005KT 10SM SCT019 BKN027 OVC032 14/11 A3019 RMK AO2 T01400112

More Conditions Fewer Conditions

10-Day Weather Forecast

Almanac

Astronomy

Sep. 19, 2014 Rise Set
Actual Time 7:07 AM EDT 7:23 PM EDT
Civil Twilight 6:41 AM EDT 7:49 PM EDT
Nautical Twilight 6:10 AM EDT 8:20 PM EDT
Astronomical Twilight 5:39 AM EDT 8:51 PM EDT
Moon 2:55 AM EDT 4:48 PM EDT
Length of Visible Light 13h 08m
Length of Day
12h 16m
Tomorrow will be 2m 23s shorter.
Waning Crescent, 20% of the Moon is Illuminated
Today
Waning Crescent
Sep 24
New
Oct 1
First Quarter
Oct 8
Full
Oct 15
Last Quarter

Today's Extremes

State Highs State Lows

Community

WunderPhotos

Upload Photos

1,754,591 photos uploaded!

Nearby

Snow Depth

Station Depth Elevation
No new snow has been reported.

Earthquake Activity

City Distance Mag. Time & Date
No recent earthquake activity has been reported nearby.
Minimum magnitude displayed is 2.5.

Coastal Water Temperatures

Place Temperature
No Stations Reporting

Nearby Weather Stations